Details for Transavia (France) at LFPO




Go Back


Latest METAR
Local Time

LFPO 211430Z 05013KT 8000 NSC 04/M02 Q1021 NOSIG

21/02/2018, 15:59:42

Description
Results
Transavia (France) Logo
Number of Pilots based at LFPO
0 Pilots Based here
Number of Transavia (France) Flights Departed from LFPO
5 Flights Departed
Number of Transavia (France) Flights Arrived at LFPO
4 Flights Arrived
Number of Transavia (France) Schedules Departing from LFPO
116 Schedules
Number of Transavia (France) Schedules Arriving at LFPO
117 Schedules
Number of Transavia (France) Schedules Departing from LFPO availible today
43 Schedules Today
Number of Transavia (France) Schedules Arriving at LFPO availible today
42 Schedules Today
Average Landing Rate at LFPO
-221 fpm
Transavia (France) Average Landing Rate at LFPO
-93 fpm
Total Fuel Purchased at LFPO by Transavia (France)
19,862.35 kgs / 43,788.54 lbs

Pilots Based at LFPO


Pilot ID
Pilot Name
Pilot Rank
No. of Flights
No. of Flying Hours
There are no pilots assigned to this hub!   Will you be the first?
Content